sensor_id;sensor_type;location;lat;lon;timestamp;P1;durP1;ratioP1;P2;durP2;ratioP2
65706;SDS011;52423;43.512;5.220;2023-04-24T00:00:11;0.93;;;0.80;;
65706;SDS011;52423;43.512;5.220;2023-04-24T00:02:39;2.80;;;0.95;;
65706;SDS011;52423;43.512;5.220;2023-04-24T00:05:06;0.88;;;0.63;;
65706;SDS011;52423;43.512;5.220;2023-04-24T00:07:32;0.95;;;0.85;;
65706;SDS011;52423;43.512;5.220;2023-04-24T00:09:58;2.03;;;1.00;;
65706;SDS011;52423;43.512;5.220;2023-04-24T00:12:24;0.95;;;0.95;;
65706;SDS011;52423;43.512;5.220;2023-04-24T00:14:50;2.35;;;1.38;;
65706;SDS011;52423;43.512;5.220;2023-04-24T00:17:15;3.45;;;1.20;;
65706;SDS011;52423;43.512;5.220;2023-04-24T00:19:44;1.08;;;0.95;;
65706;SDS011;52423;43.512;5.220;2023-04-24T00:22:10;2.05;;;1.00;;
65706;SDS011;52423;43.512;5.220;2023-04-24T00:24:35;2.55;;;1.10;;
65706;SDS011;52423;43.512;5.220;2023-04-24T00:27:01;6.43;;;1.42;;
65706;SDS011;52423;43.512;5.220;2023-04-24T00:29:27;2.42;;;1.58;;
65706;SDS011;52423;43.512;5.220;2023-04-24T00:31:53;1.63;;;1.30;;
65706;SDS011;52423;43.512;5.220;2023-04-24T00:34:19;2.33;;;1.30;;
65706;SDS011;52423;43.512;5.220;2023-04-24T00:36:44;6.60;;;1.38;;
65706;SDS011;52423;43.512;5.220;2023-04-24T00:39:10;1.67;;;1.20;;
65706;SDS011;52423;43.512;5.220;2023-04-24T00:41:35;1.02;;;1.02;;
65706;SDS011;52423;43.512;5.220;2023-04-24T00:44:01;5.60;;;2.40;;
65706;SDS011;52423;43.512;5.220;2023-04-24T00:46:26;1.25;;;1.20;;
65706;SDS011;52423;43.512;5.220;2023-04-24T00:48:52;1.60;;;1.17;;
65706;SDS011;52423;43.512;5.220;2023-04-24T00:51:18;2.30;;;1.42;;
65706;SDS011;52423;43.512;5.220;2023-04-24T00:53:43;3.72;;;1.30;;
65706;SDS011;52423;43.512;5.220;2023-04-24T00:56:09;2.65;;;1.67;;
65706;SDS011;52423;43.512;5.220;2023-04-24T00:58:34;4.00;;;1.30;;
65706;SDS011;52423;43.512;5.220;2023-04-24T01:01:00;3.75;;;1.55;;
65706;SDS011;52423;43.512;5.220;2023-04-24T01:03:28;2.35;;;1.17;;
65706;SDS011;52423;43.512;5.220;2023-04-24T01:05:56;2.50;;;1.17;;
65706;SDS011;52423;43.512;5.220;2023-04-24T01:08:23;2.88;;;1.33;;
65706;SDS011;52423;43.512;5.220;2023-04-24T01:10:50;3.63;;;1.48;;
65706;SDS011;52423;43.512;5.220;2023-04-24T01:13:17;2.85;;;1.50;;
65706;SDS011;52423;43.512;5.220;2023-04-24T01:15:43;7.40;;;1.70;;
65706;SDS011;52423;43.512;5.220;2023-04-24T01:18:09;4.75;;;1.95;;
65706;SDS011;52423;43.512;5.220;2023-04-24T01:20:34;1.08;;;0.93;;
65706;SDS011;52423;43.512;5.220;2023-04-24T01:23:04;2.42;;;1.13;;
65706;SDS011;52423;43.512;5.220;2023-04-24T01:25:31;2.38;;;1.33;;
65706;SDS011;52423;43.512;5.220;2023-04-24T01:27:56;3.97;;;1.20;;
65706;SDS011;52423;43.512;5.220;2023-04-24T01:30:22;1.25;;;1.15;;
65706;SDS011;52423;43.512;5.220;2023-04-24T01:32:48;1.25;;;1.13;;
65706;SDS011;52423;43.512;5.220;2023-04-24T01:35:13;1.52;;;1.42;;
65706;SDS011;52423;43.512;5.220;2023-04-24T01:37:39;5.65;;;1.23;;
65706;SDS011;52423;43.512;5.220;2023-04-24T01:40:05;2.90;;;1.30;;
65706;SDS011;52423;43.512;5.220;2023-04-24T01:42:31;4.03;;;1.10;;
65706;SDS011;52423;43.512;5.220;2023-04-24T01:44:57;2.35;;;1.25;;
65706;SDS011;52423;43.512;5.220;2023-04-24T01:47:22;2.40;;;1.10;;
65706;SDS011;52423;43.512;5.220;2023-04-24T01:49:49;1.60;;;1.02;;
65706;SDS011;52423;43.512;5.220;2023-04-24T01:52:16;2.97;;;1.25;;
65706;SDS011;52423;43.512;5.220;2023-04-24T01:54:42;2.65;;;1.33;;
65706;SDS011;52423;43.512;5.220;2023-04-24T01:57:08;1.55;;;1.30;;
65706;SDS011;52423;43.512;5.220;2023-04-24T01:59:33;2.40;;;1.50;;
65706;SDS011;52423;43.512;5.220;2023-04-24T02:02:01;1.85;;;1.10;;
65706;SDS011;52423;43.512;5.220;2023-04-24T02:04:27;3.40;;;1.40;;
65706;SDS011;52423;43.512;5.220;2023-04-24T02:06:52;1.35;;;1.10;;
65706;SDS011;52423;43.512;5.220;2023-04-24T02:09:18;2.35;;;1.27;;
65706;SDS011;52423;43.512;5.220;2023-04-24T02:11:43;3.20;;;1.40;;
65706;SDS011;52423;43.512;5.220;2023-04-24T02:14:09;5.32;;;1.60;;
65706;SDS011;52423;43.512;5.220;2023-04-24T02:16:34;3.35;;;1.60;;
65706;SDS011;52423;43.512;5.220;2023-04-24T02:19:01;3.28;;;1.50;;
65706;SDS011;52423;43.512;5.220;2023-04-24T02:21:26;5.53;;;1.50;;
65706;SDS011;52423;43.512;5.220;2023-04-24T02:23:53;1.50;;;1.40;;
65706;SDS011;52423;43.512;5.220;2023-04-24T02:26:18;2.17;;;1.40;;
65706;SDS011;52423;43.512;5.220;2023-04-24T02:28:44;3.15;;;1.80;;
65706;SDS011;52423;43.512;5.220;2023-04-24T02:31:09;3.42;;;1.30;;
65706;SDS011;52423;43.512;5.220;2023-04-24T02:33:35;2.15;;;1.20;;
65706;SDS011;52423;43.512;5.220;2023-04-24T02:36:01;4.68;;;1.98;;
65706;SDS011;52423;43.512;5.220;2023-04-24T02:38:27;1.92;;;1.63;;
65706;SDS011;52423;43.512;5.220;2023-04-24T02:40:52;3.28;;;1.50;;
65706;SDS011;52423;43.512;5.220;2023-04-24T02:43:17;2.22;;;1.55;;
65706;SDS011;52423;43.512;5.220;2023-04-24T02:45:43;2.95;;;1.83;;
65706;SDS011;52423;43.512;5.220;2023-04-24T02:48:08;3.05;;;1.75;;
65706;SDS011;52423;43.512;5.220;2023-04-24T02:50:34;3.88;;;2.05;;
65706;SDS011;52423;43.512;5.220;2023-04-24T02:52:59;3.63;;;1.67;;
65706;SDS011;52423;43.512;5.220;2023-04-24T02:55:25;1.83;;;1.52;;
65706;SDS011;52423;43.512;5.220;2023-04-24T02:57:50;4.88;;;2.28;;
65706;SDS011;52423;43.512;5.220;2023-04-24T03:00:16;5.07;;;1.88;;
65706;SDS011;52423;43.512;5.220;2023-04-24T03:02:41;9.20;;;2.00;;
65706;SDS011;52423;43.512;5.220;2023-04-24T03:05:07;3.60;;;1.60;;
65706;SDS011;52423;43.512;5.220;2023-04-24T03:07:32;3.53;;;1.60;;
65706;SDS011;52423;43.512;5.220;2023-04-24T03:09:58;2.65;;;1.80;;
65706;SDS011;52423;43.512;5.220;2023-04-24T03:12:24;3.15;;;1.77;;
65706;SDS011;52423;43.512;5.220;2023-04-24T03:14:50;4.70;;;1.77;;
65706;SDS011;52423;43.512;5.220;2023-04-24T03:17:15;1.88;;;1.60;;
65706;SDS011;52423;43.512;5.220;2023-04-24T03:19:41;3.97;;;1.83;;
65706;SDS011;52423;43.512;5.220;2023-04-24T03:22:06;3.60;;;1.95;;
65706;SDS011;52423;43.512;5.220;2023-04-24T03:24:34;5.85;;;1.50;;
65706;SDS011;52423;43.512;5.220;2023-04-24T03:26:59;3.72;;;1.52;;
65706;SDS011;52423;43.512;5.220;2023-04-24T03:29:25;6.45;;;1.90;;
65706;SDS011;52423;43.512;5.220;2023-04-24T03:31:50;1.60;;;1.50;;
65706;SDS011;52423;43.512;5.220;2023-04-24T03:34:15;2.15;;;1.58;;
65706;SDS011;52423;43.512;5.220;2023-04-24T03:36:41;2.38;;;1.30;;
65706;SDS011;52423;43.512;5.220;2023-04-24T03:39:06;3.00;;;1.70;;
65706;SDS011;52423;43.512;5.220;2023-04-24T03:41:32;2.30;;;1.70;;
65706;SDS011;52423;43.512;5.220;2023-04-24T03:43:58;2.15;;;1.75;;
65706;SDS011;52423;43.512;5.220;2023-04-24T03:46:23;4.93;;;1.40;;
65706;SDS011;52423;43.512;5.220;2023-04-24T03:48:49;3.90;;;1.50;;
65706;SDS011;52423;43.512;5.220;2023-04-24T03:51:14;2.10;;;1.50;;
65706;SDS011;52423;43.512;5.220;2023-04-24T03:53:39;3.08;;;1.77;;
65706;SDS011;52423;43.512;5.220;2023-04-24T03:56:05;3.85;;;1.63;;
65706;SDS011;52423;43.512;5.220;2023-04-24T03:58:30;3.47;;;1.58;;
65706;SDS011;52423;43.512;5.220;2023-04-24T04:00:56;3.05;;;1.70;;
65706;SDS011;52423;43.512;5.220;2023-04-24T04:03:23;3.50;;;1.33;;
65706;SDS011;52423;43.512;5.220;2023-04-24T04:05:48;1.73;;;1.42;;
65706;SDS011;52423;43.512;5.220;2023-04-24T04:08:14;3.92;;;1.80;;
65706;SDS011;52423;43.512;5.220;2023-04-24T04:10:39;2.78;;;1.70;;
65706;SDS011;52423;43.512;5.220;2023-04-24T04:13:05;4.32;;;1.83;;
65706;SDS011;52423;43.512;5.220;2023-04-24T04:15:31;1.38;;;1.33;;
65706;SDS011;52423;43.512;5.220;2023-04-24T04:17:56;4.80;;;1.75;;
65706;SDS011;52423;43.512;5.220;2023-04-24T04:20:22;1.98;;;1.70;;
65706;SDS011;52423;43.512;5.220;2023-04-24T04:22:47;2.13;;;1.70;;
65706;SDS011;52423;43.512;5.220;2023-04-24T04:25:13;5.32;;;2.00;;
65706;SDS011;52423;43.512;5.220;2023-04-24T04:27:38;2.70;;;1.85;;
65706;SDS011;52423;43.512;5.220;2023-04-24T04:30:04;2.35;;;1.50;;
65706;SDS011;52423;43.512;5.220;2023-04-24T04:32:33;4.20;;;1.80;;
65706;SDS011;52423;43.512;5.220;2023-04-24T04:35:02;5.25;;;1.58;;
65706;SDS011;52423;43.512;5.220;2023-04-24T04:37:29;5.22;;;1.83;;
65706;SDS011;52423;43.512;5.220;2023-04-24T04:39:55;1.83;;;1.50;;
65706;SDS011;52423;43.512;5.220;2023-04-24T04:42:20;4.22;;;2.25;;
65706;SDS011;52423;43.512;5.220;2023-04-24T04:44:46;4.43;;;1.60;;
65706;SDS011;52423;43.512;5.220;2023-04-24T04:47:11;1.90;;;1.60;;
65706;SDS011;52423;43.512;5.220;2023-04-24T04:49:37;5.65;;;1.73;;
65706;SDS011;52423;43.512;5.220;2023-04-24T04:52:03;2.95;;;1.70;;
65706;SDS011;52423;43.512;5.220;2023-04-24T04:54:29;4.65;;;1.83;;
65706;SDS011;52423;43.512;5.220;2023-04-24T04:56:54;2.70;;;1.65;;
65706;SDS011;52423;43.512;5.220;2023-04-24T04:59:20;4.20;;;1.88;;
65706;SDS011;52423;43.512;5.220;2023-04-24T05:01:45;3.63;;;1.75;;
65706;SDS011;52423;43.512;5.220;2023-04-24T05:04:11;2.45;;;1.92;;
65706;SDS011;52423;43.512;5.220;2023-04-24T05:06:36;4.55;;;1.77;;
65706;SDS011;52423;43.512;5.220;2023-04-24T05:09:02;2.08;;;1.70;;
65706;SDS011;52423;43.512;5.220;2023-04-24T05:11:28;2.58;;;1.55;;
65706;SDS011;52423;43.512;5.220;2023-04-24T05:13:54;4.45;;;2.38;;
65706;SDS011;52423;43.512;5.220;2023-04-24T05:16:20;7.85;;;2.03;;
65706;SDS011;52423;43.512;5.220;2023-04-24T05:18:46;7.07;;;2.03;;
65706;SDS011;52423;43.512;5.220;2023-04-24T05:21:11;5.47;;;1.85;;
65706;SDS011;52423;43.512;5.220;2023-04-24T05:23:36;3.45;;;1.60;;
65706;SDS011;52423;43.512;5.220;2023-04-24T05:26:02;3.30;;;1.48;;
65706;SDS011;52423;43.512;5.220;2023-04-24T05:28:27;5.63;;;1.95;;
65706;SDS011;52423;43.512;5.220;2023-04-24T05:30:53;6.25;;;1.88;;
65706;SDS011;52423;43.512;5.220;2023-04-24T05:33:21;4.40;;;1.77;;
65706;SDS011;52423;43.512;5.220;2023-04-24T05:35:47;3.95;;;2.05;;
65706;SDS011;52423;43.512;5.220;2023-04-24T05:38:13;4.68;;;1.90;;
65706;SDS011;52423;43.512;5.220;2023-04-24T05:40:39;6.53;;;2.15;;
65706;SDS011;52423;43.512;5.220;2023-04-24T05:43:05;6.80;;;2.00;;
65706;SDS011;52423;43.512;5.220;2023-04-24T05:45:30;3.38;;;1.83;;
65706;SDS011;52423;43.512;5.220;2023-04-24T05:47:56;4.65;;;1.80;;
65706;SDS011;52423;43.512;5.220;2023-04-24T05:50:22;5.30;;;1.95;;
65706;SDS011;52423;43.512;5.220;2023-04-24T05:52:47;6.03;;;2.03;;
65706;SDS011;52423;43.512;5.220;2023-04-24T05:55:12;5.88;;;1.67;;
65706;SDS011;52423;43.512;5.220;2023-04-24T05:57:38;5.95;;;1.92;;
65706;SDS011;52423;43.512;5.220;2023-04-24T06:00:04;9.75;;;2.03;;
65706;SDS011;52423;43.512;5.220;2023-04-24T06:02:30;8.43;;;2.00;;
65706;SDS011;52423;43.512;5.220;2023-04-24T06:04:57;6.10;;;2.20;;
65706;SDS011;52423;43.512;5.220;2023-04-24T06:07:24;12.38;;;1.98;;
65706;SDS011;52423;43.512;5.220;2023-04-24T06:09:51;6.72;;;1.85;;
65706;SDS011;52423;43.512;5.220;2023-04-24T06:12:17;6.78;;;1.70;;
65706;SDS011;52423;43.512;5.220;2023-04-24T06:14:42;5.63;;;1.50;;
65706;SDS011;52423;43.512;5.220;2023-04-24T06:17:07;11.45;;;1.83;;
65706;SDS011;52423;43.512;5.220;2023-04-24T06:19:33;5.40;;;1.23;;
65706;SDS011;52423;43.512;5.220;2023-04-24T06:21:58;6.22;;;2.13;;
65706;SDS011;52423;43.512;5.220;2023-04-24T06:24:27;4.72;;;1.92;;
65706;SDS011;52423;43.512;5.220;2023-04-24T06:26:52;5.22;;;1.77;;
65706;SDS011;52423;43.512;5.220;2023-04-24T06:29:18;5.13;;;2.08;;
65706;SDS011;52423;43.512;5.220;2023-04-24T06:31:43;5.90;;;1.65;;
65706;SDS011;52423;43.512;5.220;2023-04-24T06:34:08;6.10;;;2.10;;
65706;SDS011;52423;43.512;5.220;2023-04-24T06:36:34;8.52;;;1.67;;
65706;SDS011;52423;43.512;5.220;2023-04-24T06:39:00;5.53;;;1.83;;
65706;SDS011;52423;43.512;5.220;2023-04-24T06:41:26;3.78;;;1.65;;
65706;SDS011;52423;43.512;5.220;2023-04-24T06:43:51;5.95;;;1.52;;
65706;SDS011;52423;43.512;5.220;2023-04-24T06:46:17;5.57;;;1.88;;
65706;SDS011;52423;43.512;5.220;2023-04-24T06:48:43;6.18;;;2.17;;
65706;SDS011;52423;43.512;5.220;2023-04-24T06:51:08;9.02;;;1.67;;
65706;SDS011;52423;43.512;5.220;2023-04-24T06:53:34;5.15;;;1.60;;
65706;SDS011;52423;43.512;5.220;2023-04-24T06:56:00;4.07;;;1.63;;
65706;SDS011;52423;43.512;5.220;2023-04-24T06:58:25;14.43;;;2.03;;
65706;SDS011;52423;43.512;5.220;2023-04-24T07:00:50;5.18;;;1.30;;
65706;SDS011;52423;43.512;5.220;2023-04-24T07:03:16;7.97;;;1.50;;
65706;SDS011;52423;43.512;5.220;2023-04-24T07:05:41;5.85;;;1.50;;
65706;SDS011;52423;43.512;5.220;2023-04-24T07:08:07;5.13;;;2.00;;
65706;SDS011;52423;43.512;5.220;2023-04-24T07:10:33;9.52;;;2.15;;
65706;SDS011;52423;43.512;5.220;2023-04-24T07:13:00;5.78;;;1.50;;
65706;SDS011;52423;43.512;5.220;2023-04-24T07:15:26;12.07;;;1.77;;
65706;SDS011;52423;43.512;5.220;2023-04-24T07:17:52;7.70;;;1.52;;
65706;SDS011;52423;43.512;5.220;2023-04-24T07:20:17;5.28;;;1.75;;
65706;SDS011;52423;43.512;5.220;2023-04-24T07:22:42;4.28;;;1.48;;
65706;SDS011;52423;43.512;5.220;2023-04-24T07:25:08;5.63;;;2.00;;
65706;SDS011;52423;43.512;5.220;2023-04-24T07:27:34;5.57;;;1.40;;
65706;SDS011;52423;43.512;5.220;2023-04-24T07:29:59;2.72;;;1.35;;
65706;SDS011;52423;43.512;5.220;2023-04-24T07:32:25;4.63;;;1.20;;
65706;SDS011;52423;43.512;5.220;2023-04-24T07:34:51;2.72;;;1.20;;
65706;SDS011;52423;43.512;5.220;2023-04-24T07:37:16;6.40;;;1.55;;
65706;SDS011;52423;43.512;5.220;2023-04-24T07:39:42;3.50;;;1.60;;
65706;SDS011;52423;43.512;5.220;2023-04-24T07:42:07;4.53;;;1.40;;
65706;SDS011;52423;43.512;5.220;2023-04-24T07:44:32;4.53;;;1.50;;
65706;SDS011;52423;43.512;5.220;2023-04-24T07:46:58;3.53;;;1.40;;
65706;SDS011;52423;43.512;5.220;2023-04-24T07:49:23;2.72;;;1.02;;
65706;SDS011;52423;43.512;5.220;2023-04-24T07:51:49;8.18;;;1.40;;
65706;SDS011;52423;43.512;5.220;2023-04-24T07:54:15;5.40;;;1.23;;
65706;SDS011;52423;43.512;5.220;2023-04-24T07:56:41;6.43;;;1.20;;
65706;SDS011;52423;43.512;5.220;2023-04-24T07:59:08;5.05;;;1.38;;
65706;SDS011;52423;43.512;5.220;2023-04-24T08:01:35;6.40;;;1.33;;
65706;SDS011;52423;43.512;5.220;2023-04-24T08:04:00;3.38;;;1.60;;
65706;SDS011;52423;43.512;5.220;2023-04-24T08:06:25;2.45;;;1.00;;
65706;SDS011;52423;43.512;5.220;2023-04-24T08:08:55;4.00;;;1.30;;
65706;SDS011;52423;43.512;5.220;2023-04-24T08:11:24;3.15;;;1.25;;
65706;SDS011;52423;43.512;5.220;2023-04-24T08:13:49;7.18;;;1.38;;
65706;SDS011;52423;43.512;5.220;2023-04-24T08:16:15;6.22;;;1.20;;
65706;SDS011;52423;43.512;5.220;2023-04-24T08:18:40;3.17;;;1.40;;
65706;SDS011;52423;43.512;5.220;2023-04-24T08:21:06;7.35;;;1.10;;
65706;SDS011;52423;43.512;5.220;2023-04-24T08:23:31;4.88;;;1.00;;
65706;SDS011;52423;43.512;5.220;2023-04-24T08:25:56;3.75;;;1.23;;
65706;SDS011;52423;43.512;5.220;2023-04-24T08:28:22;6.78;;;1.48;;
65706;SDS011;52423;43.512;5.220;2023-04-24T08:30:48;3.10;;;1.15;;
65706;SDS011;52423;43.512;5.220;2023-04-24T08:33:19;2.95;;;1.27;;
65706;SDS011;52423;43.512;5.220;2023-04-24T08:35:44;4.43;;;1.23;;
65706;SDS011;52423;43.512;5.220;2023-04-24T08:38:10;5.15;;;1.30;;
65706;SDS011;52423;43.512;5.220;2023-04-24T08:40:35;4.10;;;1.30;;
65706;SDS011;52423;43.512;5.220;2023-04-24T08:43:01;2.78;;;1.20;;
65706;SDS011;52423;43.512;5.220;2023-04-24T08:45:28;3.30;;;1.00;;
65706;SDS011;52423;43.512;5.220;2023-04-24T08:47:54;4.70;;;1.10;;
65706;SDS011;52423;43.512;5.220;2023-04-24T08:50:20;3.83;;;1.45;;
65706;SDS011;52423;43.512;5.220;2023-04-24T08:52:47;2.85;;;1.10;;
65706;SDS011;52423;43.512;5.220;2023-04-24T08:55:14;2.47;;;1.33;;
65706;SDS011;52423;43.512;5.220;2023-04-24T08:57:41;1.58;;;0.80;;
65706;SDS011;52423;43.512;5.220;2023-04-24T09:00:10;2.50;;;1.17;;
65706;SDS011;52423;43.512;5.220;2023-04-24T09:02:36;1.48;;;0.93;;
65706;SDS011;52423;43.512;5.220;2023-04-24T09:05:02;5.78;;;1.05;;
65706;SDS011;52423;43.512;5.220;2023-04-24T09:07:28;5.28;;;1.58;;
65706;SDS011;52423;43.512;5.220;2023-04-24T09:09:57;7.03;;;1.50;;
65706;SDS011;52423;43.512;5.220;2023-04-24T09:12:24;1.80;;;1.10;;
65706;SDS011;52423;43.512;5.220;2023-04-24T09:14:49;5.95;;;1.30;;
65706;SDS011;52423;43.512;5.220;2023-04-24T09:17:16;3.60;;;1.38;;
65706;SDS011;52423;43.512;5.220;2023-04-24T09:19:41;4.72;;;0.93;;
65706;SDS011;52423;43.512;5.220;2023-04-24T09:22:07;3.40;;;1.15;;
65706;SDS011;52423;43.512;5.220;2023-04-24T09:24:34;4.10;;;0.90;;
65706;SDS011;52423;43.512;5.220;2023-04-24T09:27:00;2.15;;;1.10;;
65706;SDS011;52423;43.512;5.220;2023-04-24T09:29:28;4.50;;;1.00;;
65706;SDS011;52423;43.512;5.220;2023-04-24T09:31:54;4.88;;;1.00;;
65706;SDS011;52423;43.512;5.220;2023-04-24T09:34:23;4.78;;;1.10;;
65706;SDS011;52423;43.512;5.220;2023-04-24T09:39:17;6.90;;;0.88;;
65706;SDS011;52423;43.512;5.220;2023-04-24T09:41:53;7.60;;;0.85;;
65706;SDS011;52423;43.512;5.220;2023-04-24T09:44:22;0.82;;;0.60;;
65706;SDS011;52423;43.512;5.220;2023-04-24T09:46:56;2.15;;;0.80;;
65706;SDS011;52423;43.512;5.220;2023-04-24T09:49:26;2.80;;;0.63;;
65706;SDS011;52423;43.512;5.220;2023-04-24T09:52:03;4.65;;;0.80;;
65706;SDS011;52423;43.512;5.220;2023-04-24T09:54:29;1.67;;;0.60;;
65706;SDS011;52423;43.512;5.220;2023-04-24T09:56:54;2.50;;;0.60;;
65706;SDS011;52423;43.512;5.220;2023-04-24T09:59:21;1.90;;;0.82;;
65706;SDS011;52423;43.512;5.220;2023-04-24T10:01:47;2.72;;;0.80;;
65706;SDS011;52423;43.512;5.220;2023-04-24T10:06:47;2.97;;;0.90;;
65706;SDS011;52423;43.512;5.220;2023-04-24T10:09:14;1.30;;;0.73;;
65706;SDS011;52423;43.512;5.220;2023-04-24T10:11:41;1.45;;;0.88;;
65706;SDS011;52423;43.512;5.220;2023-04-24T10:14:09;1.83;;;0.80;;
65706;SDS011;52423;43.512;5.220;2023-04-24T10:16:37;3.33;;;0.95;;
65706;SDS011;52423;43.512;5.220;2023-04-24T10:19:04;1.80;;;0.80;;
65706;SDS011;52423;43.512;5.220;2023-04-24T10:21:29;1.30;;;0.65;;
65706;SDS011;52423;43.512;5.220;2023-04-24T10:23:55;1.75;;;0.60;;
65706;SDS011;52423;43.512;5.220;2023-04-24T10:26:21;1.15;;;0.63;;
65706;SDS011;52423;43.512;5.220;2023-04-24T10:28:47;0.57;;;0.57;;
65706;SDS011;52423;43.512;5.220;2023-04-24T10:31:13;3.22;;;1.13;;
65706;SDS011;52423;43.512;5.220;2023-04-24T10:33:42;1.00;;;0.73;;
65706;SDS011;52423;43.512;5.220;2023-04-24T10:36:10;3.83;;;0.82;;
65706;SDS011;52423;43.512;5.220;2023-04-24T10:38:38;1.73;;;0.70;;
65706;SDS011;52423;43.512;5.220;2023-04-24T10:41:06;1.52;;;0.60;;
65706;SDS011;52423;43.512;5.220;2023-04-24T10:43:34;2.40;;;0.70;;
65706;SDS011;52423;43.512;5.220;2023-04-24T10:46:00;1.10;;;0.68;;
65706;SDS011;52423;43.512;5.220;2023-04-24T10:48:28;0.95;;;0.68;;
65706;SDS011;52423;43.512;5.220;2023-04-24T10:50:53;1.67;;;1.02;;
65706;SDS011;52423;43.512;5.220;2023-04-24T10:58:13;1.65;;;1.20;;
65706;SDS011;52423;43.512;5.220;2023-04-24T11:00:41;1.63;;;0.60;;
65706;SDS011;52423;43.512;5.220;2023-04-24T11:03:30;1.52;;;0.90;;
65706;SDS011;52423;43.512;5.220;2023-04-24T11:06:05;1.15;;;1.00;;
65706;SDS011;52423;43.512;5.220;2023-04-24T11:08:52;1.48;;;1.00;;
65706;SDS011;52423;43.512;5.220;2023-04-24T11:11:23;1.45;;;0.90;;
65706;SDS011;52423;43.512;5.220;2023-04-24T11:16:20;2.63;;;1.25;;
65706;SDS011;52423;43.512;5.220;2023-04-24T11:19:24;1.27;;;1.00;;
65706;SDS011;52423;43.512;5.220;2023-04-24T11:21:54;1.17;;;1.10;;
65706;SDS011;52423;43.512;5.220;2023-04-24T11:24:31;3.47;;;1.25;;
65706;SDS011;52423;43.512;5.220;2023-04-24T11:27:15;1.17;;;1.08;;
65706;SDS011;52423;43.512;5.220;2023-04-24T11:32:35;2.03;;;1.27;;
65706;SDS011;52423;43.512;5.220;2023-04-24T11:37:38;4.15;;;1.33;;
65706;SDS011;52423;43.512;5.220;2023-04-24T11:40:06;1.88;;;1.05;;
65706;SDS011;52423;43.512;5.220;2023-04-24T11:42:51;5.35;;;1.20;;
65706;SDS011;52423;43.512;5.220;2023-04-24T11:45:27;3.60;;;1.05;;
65706;SDS011;52423;43.512;5.220;2023-04-24T11:47:53;1.75;;;1.00;;
65706;SDS011;52423;43.512;5.220;2023-04-24T11:50:20;1.50;;;0.85;;
65706;SDS011;52423;43.512;5.220;2023-04-24T11:52:48;1.52;;;0.82;;
65706;SDS011;52423;43.512;5.220;2023-04-24T11:57:44;1.70;;;0.98;;
65706;SDS011;52423;43.512;5.220;2023-04-24T12:00:17;4.00;;;1.25;;
65706;SDS011;52423;43.512;5.220;2023-04-24T12:02:44;1.05;;;0.95;;
65706;SDS011;52423;43.512;5.220;2023-04-24T12:08:04;1.10;;;0.90;;
65706;SDS011;52423;43.512;5.220;2023-04-24T12:10:31;1.58;;;1.23;;
65706;SDS011;52423;43.512;5.220;2023-04-24T12:12:57;3.03;;;0.90;;
65706;SDS011;52423;43.512;5.220;2023-04-24T12:15:23;2.92;;;0.82;;
65706;SDS011;52423;43.512;5.220;2023-04-24T12:17:50;1.52;;;0.90;;
65706;SDS011;52423;43.512;5.220;2023-04-24T12:20:16;2.00;;;0.88;;
65706;SDS011;52423;43.512;5.220;2023-04-24T12:25:11;1.65;;;0.75;;
65706;SDS011;52423;43.512;5.220;2023-04-24T12:27:37;0.70;;;0.70;;
65706;SDS011;52423;43.512;5.220;2023-04-24T12:30:03;1.05;;;0.75;;
65706;SDS011;52423;43.512;5.220;2023-04-24T12:32:30;2.85;;;0.90;;
65706;SDS011;52423;43.512;5.220;2023-04-24T12:34:56;1.95;;;0.88;;
65706;SDS011;52423;43.512;5.220;2023-04-24T12:37:25;1.58;;;0.70;;
65706;SDS011;52423;43.512;5.220;2023-04-24T12:40:25;3.30;;;0.82;;
65706;SDS011;52423;43.512;5.220;2023-04-24T12:42:44;1.33;;;0.90;;
65706;SDS011;52423;43.512;5.220;2023-04-24T12:45:11;3.53;;;0.90;;
65706;SDS011;52423;43.512;5.220;2023-04-24T12:47:37;0.80;;;0.80;;
65706;SDS011;52423;43.512;5.220;2023-04-24T12:50:04;0.98;;;0.80;;
65706;SDS011;52423;43.512;5.220;2023-04-24T12:52:30;1.08;;;0.98;;
65706;SDS011;52423;43.512;5.220;2023-04-24T12:54:57;2.58;;;0.65;;
65706;SDS011;52423;43.512;5.220;2023-04-24T12:57:24;2.53;;;0.68;;
65706;SDS011;52423;43.512;5.220;2023-04-24T12:59:53;0.95;;;0.68;;
65706;SDS011;52423;43.512;5.220;2023-04-24T13:02:20;1.23;;;0.60;;
65706;SDS011;52423;43.512;5.220;2023-04-24T13:04:47;1.80;;;0.80;;
65706;SDS011;52423;43.512;5.220;2023-04-24T13:07:13;2.15;;;0.60;;
65706;SDS011;52423;43.512;5.220;2023-04-24T13:09:39;1.35;;;0.50;;
65706;SDS011;52423;43.512;5.220;2023-04-24T13:12:06;3.13;;;0.60;;
65706;SDS011;52423;43.512;5.220;2023-04-24T13:14:31;0.88;;;0.65;;
65706;SDS011;52423;43.512;5.220;2023-04-24T13:16:57;0.70;;;0.38;;
65706;SDS011;52423;43.512;5.220;2023-04-24T13:19:26;1.23;;;0.68;;
65706;SDS011;52423;43.512;5.220;2023-04-24T13:21:54;6.85;;;0.85;;
65706;SDS011;52423;43.512;5.220;2023-04-24T13:24:21;2.92;;;0.52;;
65706;SDS011;52423;43.512;5.220;2023-04-24T13:26:49;1.08;;;0.52;;
65706;SDS011;52423;43.512;5.220;2023-04-24T13:29:15;0.45;;;0.45;;
65706;SDS011;52423;43.512;5.220;2023-04-24T13:31:40;3.80;;;1.65;;
65706;SDS011;52423;43.512;5.220;2023-04-24T13:34:06;4.90;;;0.75;;
65706;SDS011;52423;43.512;5.220;2023-04-24T13:36:32;1.50;;;0.93;;
65706;SDS011;52423;43.512;5.220;2023-04-24T13:38:57;1.20;;;0.80;;
65706;SDS011;52423;43.512;5.220;2023-04-24T13:41:23;1.00;;;0.50;;
65706;SDS011;52423;43.512;5.220;2023-04-24T13:43:48;1.17;;;0.63;;
65706;SDS011;52423;43.512;5.220;2023-04-24T13:46:14;1.27;;;0.75;;
65706;SDS011;52423;43.512;5.220;2023-04-24T13:48:39;6.13;;;0.70;;
65706;SDS011;52423;43.512;5.220;2023-04-24T13:51:05;2.85;;;0.47;;
65706;SDS011;52423;43.512;5.220;2023-04-24T13:53:30;1.85;;;0.68;;
65706;SDS011;52423;43.512;5.220;2023-04-24T13:55:57;1.70;;;0.90;;
65706;SDS011;52423;43.512;5.220;2023-04-24T13:58:22;2.65;;;0.70;;
65706;SDS011;52423;43.512;5.220;2023-04-24T14:00:48;2.22;;;0.93;;
65706;SDS011;52423;43.512;5.220;2023-04-24T14:03:13;1.88;;;0.90;;
65706;SDS011;52423;43.512;5.220;2023-04-24T14:05:38;1.63;;;0.82;;
65706;SDS011;52423;43.512;5.220;2023-04-24T14:08:04;1.27;;;0.50;;
65706;SDS011;52423;43.512;5.220;2023-04-24T14:10:29;0.85;;;0.55;;
65706;SDS011;52423;43.512;5.220;2023-04-24T14:12:55;1.77;;;0.68;;
65706;SDS011;52423;43.512;5.220;2023-04-24T14:15:20;1.73;;;0.55;;
65706;SDS011;52423;43.512;5.220;2023-04-24T14:17:46;0.77;;;0.77;;
65706;SDS011;52423;43.512;5.220;2023-04-24T14:20:12;0.90;;;0.80;;
65706;SDS011;52423;43.512;5.220;2023-04-24T14:22:37;0.60;;;0.60;;
65706;SDS011;52423;43.512;5.220;2023-04-24T14:25:03;1.73;;;0.60;;
65706;SDS011;52423;43.512;5.220;2023-04-24T14:27:30;0.95;;;0.70;;
65706;SDS011;52423;43.512;5.220;2023-04-24T14:29:57;0.82;;;0.63;;
65706;SDS011;52423;43.512;5.220;2023-04-24T14:32:22;4.05;;;0.75;;
65706;SDS011;52423;43.512;5.220;2023-04-24T14:34:47;1.05;;;0.70;;
65706;SDS011;52423;43.512;5.220;2023-04-24T14:37:13;1.10;;;0.70;;
65706;SDS011;52423;43.512;5.220;2023-04-24T14:39:38;1.33;;;0.65;;
65706;SDS011;52423;43.512;5.220;2023-04-24T14:42:04;4.95;;;1.10;;
65706;SDS011;52423;43.512;5.220;2023-04-24T14:44:29;1.92;;;1.10;;
65706;SDS011;52423;43.512;5.220;2023-04-24T14:46:54;3.58;;;0.82;;
65706;SDS011;52423;43.512;5.220;2023-04-24T14:49:20;0.63;;;0.63;;
65706;SDS011;52423;43.512;5.220;2023-04-24T14:51:45;3.33;;;0.90;;
65706;SDS011;52423;43.512;5.220;2023-04-24T14:54:11;4.95;;;1.35;;
65706;SDS011;52423;43.512;5.220;2023-04-24T14:56:36;1.00;;;0.80;;
65706;SDS011;52423;43.512;5.220;2023-04-24T14:59:02;2.22;;;1.00;;
65706;SDS011;52423;43.512;5.220;2023-04-24T15:01:27;1.58;;;0.95;;
65706;SDS011;52423;43.512;5.220;2023-04-24T15:03:53;4.40;;;0.93;;
65706;SDS011;52423;43.512;5.220;2023-04-24T15:06:18;6.65;;;0.80;;
65706;SDS011;52423;43.512;5.220;2023-04-24T15:08:45;1.02;;;0.70;;